sensor_id;sensor_type;location;lat;lon;timestamp;P1;durP1;ratioP1;P2;durP2;ratioP2
42066;SDS011;27734;47.028;28.820;2023-12-28T00:00:21;31.87;;;14.93;;
42066;SDS011;27734;47.028;28.820;2023-12-28T00:03:13;31.40;;;15.90;;
42066;SDS011;27734;47.028;28.820;2023-12-28T00:05:44;33.97;;;16.73;;
42066;SDS011;27734;47.028;28.820;2023-12-28T00:08:15;28.37;;;13.57;;
42066;SDS011;27734;47.028;28.820;2023-12-28T00:10:47;28.57;;;11.90;;
42066;SDS011;27734;47.028;28.820;2023-12-28T00:13:18;28.97;;;12.40;;
42066;SDS011;27734;47.028;28.820;2023-12-28T00:15:50;28.43;;;12.20;;
42066;SDS011;27734;47.028;28.820;2023-12-28T00:18:21;28.93;;;13.37;;
42066;SDS011;27734;47.028;28.820;2023-12-28T00:20:52;29.07;;;13.23;;
42066;SDS011;27734;47.028;28.820;2023-12-28T00:23:23;29.40;;;13.07;;
42066;SDS011;27734;47.028;28.820;2023-12-28T00:25:55;28.87;;;13.37;;
42066;SDS011;27734;47.028;28.820;2023-12-28T00:28:26;31.53;;;13.67;;
42066;SDS011;27734;47.028;28.820;2023-12-28T00:30:57;33.47;;;14.23;;
42066;SDS011;27734;47.028;28.820;2023-12-28T00:33:29;30.33;;;14.30;;
42066;SDS011;27734;47.028;28.820;2023-12-28T00:36:00;33.13;;;15.10;;
42066;SDS011;27734;47.028;28.820;2023-12-28T00:38:32;29.27;;;14.23;;
42066;SDS011;27734;47.028;28.820;2023-12-28T00:41:04;28.03;;;13.60;;
42066;SDS011;27734;47.028;28.820;2023-12-28T00:43:35;28.20;;;14.27;;
42066;SDS011;27734;47.028;28.820;2023-12-28T00:46:06;32.77;;;13.93;;
42066;SDS011;27734;47.028;28.820;2023-12-28T00:48:38;30.37;;;13.83;;
42066;SDS011;27734;47.028;28.820;2023-12-28T00:51:10;31.00;;;14.33;;
42066;SDS011;27734;47.028;28.820;2023-12-28T00:53:41;28.73;;;13.20;;
42066;SDS011;27734;47.028;28.820;2023-12-28T00:56:12;34.70;;;14.13;;
42066;SDS011;27734;47.028;28.820;2023-12-28T00:58:44;32.10;;;14.60;;
42066;SDS011;27734;47.028;28.820;2023-12-28T01:01:15;31.23;;;14.03;;
42066;SDS011;27734;47.028;28.820;2023-12-28T01:03:46;28.37;;;12.97;;
42066;SDS011;27734;47.028;28.820;2023-12-28T01:06:18;29.27;;;13.50;;
42066;SDS011;27734;47.028;28.820;2023-12-28T01:08:49;30.50;;;13.10;;
42066;SDS011;27734;47.028;28.820;2023-12-28T01:11:20;31.57;;;14.00;;
42066;SDS011;27734;47.028;28.820;2023-12-28T01:13:52;29.60;;;13.60;;
42066;SDS011;27734;47.028;28.820;2023-12-28T01:16:23;29.67;;;13.37;;
42066;SDS011;27734;47.028;28.820;2023-12-28T01:18:56;27.77;;;13.57;;
42066;SDS011;27734;47.028;28.820;2023-12-28T01:21:27;29.10;;;12.90;;
42066;SDS011;27734;47.028;28.820;2023-12-28T01:23:59;28.53;;;13.50;;
42066;SDS011;27734;47.028;28.820;2023-12-28T01:26:30;34.47;;;13.17;;
42066;SDS011;27734;47.028;28.820;2023-12-28T01:29:02;28.13;;;12.43;;
42066;SDS011;27734;47.028;28.820;2023-12-28T01:31:34;31.67;;;12.97;;
42066;SDS011;27734;47.028;28.820;2023-12-28T01:34:07;28.63;;;12.57;;
42066;SDS011;27734;47.028;28.820;2023-12-28T01:36:38;25.73;;;12.47;;
42066;SDS011;27734;47.028;28.820;2023-12-28T01:39:12;27.75;;;12.65;;
42066;SDS011;27734;47.028;28.820;2023-12-28T01:41:46;30.45;;;12.85;;
42066;SDS011;27734;47.028;28.820;2023-12-28T01:44:17;27.67;;;11.30;;
42066;SDS011;27734;47.028;28.820;2023-12-28T01:46:49;27.67;;;11.87;;
42066;SDS011;27734;47.028;28.820;2023-12-28T01:49:21;31.37;;;11.60;;
42066;SDS011;27734;47.028;28.820;2023-12-28T01:51:53;26.93;;;11.63;;
42066;SDS011;27734;47.028;28.820;2023-12-28T01:54:24;25.57;;;11.23;;
42066;SDS011;27734;47.028;28.820;2023-12-28T01:56:56;28.40;;;11.40;;
42066;SDS011;27734;47.028;28.820;2023-12-28T01:59:29;19.50;;;8.70;;
42066;SDS011;27734;47.028;28.820;2023-12-28T02:02:01;29.23;;;11.73;;
42066;SDS011;27734;47.028;28.820;2023-12-28T02:04:33;29.63;;;13.13;;
42066;SDS011;27734;47.028;28.820;2023-12-28T02:07:05;29.33;;;12.07;;
42066;SDS011;27734;47.028;28.820;2023-12-28T02:09:37;27.43;;;12.20;;
42066;SDS011;27734;47.028;28.820;2023-12-28T02:12:08;25.03;;;11.87;;
42066;SDS011;27734;47.028;28.820;2023-12-28T02:14:40;31.33;;;13.00;;
42066;SDS011;27734;47.028;28.820;2023-12-28T02:17:13;29.83;;;12.50;;
42066;SDS011;27734;47.028;28.820;2023-12-28T02:19:47;30.77;;;12.93;;
42066;SDS011;27734;47.028;28.820;2023-12-28T02:22:23;29.43;;;12.60;;
42066;SDS011;27734;47.028;28.820;2023-12-28T02:25:03;33.97;;;14.70;;
42066;SDS011;27734;47.028;28.820;2023-12-28T02:27:37;33.63;;;13.67;;
42066;SDS011;27734;47.028;28.820;2023-12-28T02:30:10;31.37;;;14.23;;
42066;SDS011;27734;47.028;28.820;2023-12-28T02:32:52;32.80;;;14.07;;
42066;SDS011;27734;47.028;28.820;2023-12-28T02:35:31;26.73;;;13.57;;
42066;SDS011;27734;47.028;28.820;2023-12-28T02:38:07;31.43;;;13.87;;
42066;SDS011;27734;47.028;28.820;2023-12-28T02:40:41;28.50;;;13.13;;
42066;SDS011;27734;47.028;28.820;2023-12-28T02:43:14;32.97;;;14.30;;
42066;SDS011;27734;47.028;28.820;2023-12-28T02:45:45;30.70;;;13.40;;
42066;SDS011;27734;47.028;28.820;2023-12-28T02:48:16;30.67;;;13.40;;
42066;SDS011;27734;47.028;28.820;2023-12-28T02:50:48;26.43;;;12.33;;
42066;SDS011;27734;47.028;28.820;2023-12-28T02:53:19;27.63;;;12.67;;
42066;SDS011;27734;47.028;28.820;2023-12-28T02:55:50;30.33;;;12.47;;
42066;SDS011;27734;47.028;28.820;2023-12-28T02:58:22;29.03;;;12.90;;
42066;SDS011;27734;47.028;28.820;2023-12-28T03:00:53;29.03;;;13.00;;
42066;SDS011;27734;47.028;28.820;2023-12-28T03:03:24;32.77;;;12.77;;
42066;SDS011;27734;47.028;28.820;2023-12-28T03:05:57;29.93;;;12.43;;
42066;SDS011;27734;47.028;28.820;2023-12-28T03:08:28;26.67;;;12.60;;
42066;SDS011;27734;47.028;28.820;2023-12-28T03:10:59;30.37;;;13.03;;
42066;SDS011;27734;47.028;28.820;2023-12-28T03:13:30;29.60;;;13.53;;
42066;SDS011;27734;47.028;28.820;2023-12-28T03:16:02;28.03;;;12.20;;
42066;SDS011;27734;47.028;28.820;2023-12-28T03:18:34;28.33;;;12.93;;
42066;SDS011;27734;47.028;28.820;2023-12-28T03:21:05;27.20;;;12.23;;
42066;SDS011;27734;47.028;28.820;2023-12-28T03:23:37;30.87;;;12.87;;
42066;SDS011;27734;47.028;28.820;2023-12-28T03:26:08;27.37;;;12.50;;
42066;SDS011;27734;47.028;28.820;2023-12-28T03:28:39;27.90;;;12.07;;
42066;SDS011;27734;47.028;28.820;2023-12-28T03:31:11;28.97;;;13.07;;
42066;SDS011;27734;47.028;28.820;2023-12-28T03:33:42;24.70;;;11.57;;
42066;SDS011;27734;47.028;28.820;2023-12-28T03:36:18;25.93;;;11.90;;
42066;SDS011;27734;47.028;28.820;2023-12-28T03:38:51;26.07;;;12.63;;
42066;SDS011;27734;47.028;28.820;2023-12-28T03:41:22;28.13;;;12.50;;
42066;SDS011;27734;47.028;28.820;2023-12-28T03:43:54;25.30;;;11.97;;
42066;SDS011;27734;47.028;28.820;2023-12-28T03:46:25;27.50;;;12.73;;
42066;SDS011;27734;47.028;28.820;2023-12-28T03:48:56;26.83;;;11.93;;
42066;SDS011;27734;47.028;28.820;2023-12-28T03:51:27;30.20;;;11.70;;
42066;SDS011;27734;47.028;28.820;2023-12-28T03:53:59;25.73;;;11.30;;
42066;SDS011;27734;47.028;28.820;2023-12-28T03:56:31;25.17;;;11.37;;
42066;SDS011;27734;47.028;28.820;2023-12-28T03:59:03;22.33;;;9.13;;
42066;SDS011;27734;47.028;28.820;2023-12-28T04:01:35;26.73;;;11.73;;
42066;SDS011;27734;47.028;28.820;2023-12-28T04:04:06;26.03;;;9.87;;
42066;SDS011;27734;47.028;28.820;2023-12-28T04:06:38;26.80;;;11.45;;
42066;SDS011;27734;47.028;28.820;2023-12-28T04:09:12;32.03;;;12.58;;
42066;SDS011;27734;47.028;28.820;2023-12-28T04:11:44;34.73;;;13.60;;
42066;SDS011;27734;47.028;28.820;2023-12-28T04:14:15;35.20;;;15.10;;
42066;SDS011;27734;47.028;28.820;2023-12-28T04:16:47;38.95;;;17.45;;
42066;SDS011;27734;47.028;28.820;2023-12-28T04:19:18;37.40;;;18.63;;
42066;SDS011;27734;47.028;28.820;2023-12-28T04:21:49;37.87;;;18.60;;
42066;SDS011;27734;47.028;28.820;2023-12-28T04:24:21;40.63;;;19.00;;
42066;SDS011;27734;47.028;28.820;2023-12-28T04:26:52;37.17;;;19.07;;
42066;SDS011;27734;47.028;28.820;2023-12-28T04:29:24;41.00;;;20.67;;
42066;SDS011;27734;47.028;28.820;2023-12-28T04:31:56;42.47;;;19.37;;
42066;SDS011;27734;47.028;28.820;2023-12-28T04:34:27;37.33;;;17.83;;
42066;SDS011;27734;47.028;28.820;2023-12-28T04:36:58;41.93;;;19.07;;
42066;SDS011;27734;47.028;28.820;2023-12-28T04:39:30;44.53;;;19.13;;
42066;SDS011;27734;47.028;28.820;2023-12-28T04:42:01;43.90;;;19.33;;
42066;SDS011;27734;47.028;28.820;2023-12-28T04:44:33;39.63;;;18.33;;
42066;SDS011;27734;47.028;28.820;2023-12-28T04:47:09;40.23;;;19.73;;
42066;SDS011;27734;47.028;28.820;2023-12-28T04:49:40;43.07;;;20.00;;
42066;SDS011;27734;47.028;28.820;2023-12-28T04:52:11;46.07;;;19.90;;
42066;SDS011;27734;47.028;28.820;2023-12-28T04:54:43;38.60;;;17.97;;
42066;SDS011;27734;47.028;28.820;2023-12-28T04:57:14;39.83;;;18.27;;
42066;SDS011;27734;47.028;28.820;2023-12-28T04:59:45;42.07;;;18.13;;
42066;SDS011;27734;47.028;28.820;2023-12-28T05:02:16;44.97;;;17.60;;
42066;SDS011;27734;47.028;28.820;2023-12-28T05:04:48;45.90;;;19.20;;
42066;SDS011;27734;47.028;28.820;2023-12-28T05:07:20;58.15;;;19.55;;
42066;SDS011;27734;47.028;28.820;2023-12-28T05:09:51;40.57;;;18.17;;
42066;SDS011;27734;47.028;28.820;2023-12-28T05:12:23;37.90;;;17.90;;
42066;SDS011;27734;47.028;28.820;2023-12-28T05:14:54;37.63;;;16.93;;
42066;SDS011;27734;47.028;28.820;2023-12-28T05:17:25;41.10;;;17.97;;
42066;SDS011;27734;47.028;28.820;2023-12-28T05:19:57;41.47;;;18.97;;
42066;SDS011;27734;47.028;28.820;2023-12-28T05:22:28;37.07;;;17.53;;
42066;SDS011;27734;47.028;28.820;2023-12-28T05:24:59;39.30;;;18.67;;
42066;SDS011;27734;47.028;28.820;2023-12-28T05:27:30;42.40;;;19.47;;
42066;SDS011;27734;47.028;28.820;2023-12-28T05:30:02;45.80;;;20.40;;
42066;SDS011;27734;47.028;28.820;2023-12-28T05:32:34;49.27;;;20.77;;
42066;SDS011;27734;47.028;28.820;2023-12-28T05:35:06;45.87;;;20.63;;
42066;SDS011;27734;47.028;28.820;2023-12-28T05:37:37;53.67;;;23.60;;
42066;SDS011;27734;47.028;28.820;2023-12-28T05:40:09;59.17;;;25.53;;
42066;SDS011;27734;47.028;28.820;2023-12-28T05:42:41;57.90;;;24.70;;
42066;SDS011;27734;47.028;28.820;2023-12-28T05:45:13;54.53;;;24.83;;
42066;SDS011;27734;47.028;28.820;2023-12-28T05:47:44;48.93;;;23.67;;
42066;SDS011;27734;47.028;28.820;2023-12-28T05:50:15;50.80;;;23.40;;
42066;SDS011;27734;47.028;28.820;2023-12-28T05:52:47;52.37;;;24.17;;
42066;SDS011;27734;47.028;28.820;2023-12-28T05:55:18;49.00;;;21.13;;
42066;SDS011;27734;47.028;28.820;2023-12-28T05:57:49;50.83;;;22.83;;
42066;SDS011;27734;47.028;28.820;2023-12-28T06:00:21;45.50;;;22.37;;
42066;SDS011;27734;47.028;28.820;2023-12-28T06:02:52;45.35;;;20.43;;
42066;SDS011;27734;47.028;28.820;2023-12-28T06:05:24;47.43;;;23.20;;
42066;SDS011;27734;47.028;28.820;2023-12-28T06:07:58;44.00;;;22.30;;
42066;SDS011;27734;47.028;28.820;2023-12-28T06:10:31;55.50;;;27.58;;
42066;SDS011;27734;47.028;28.820;2023-12-28T06:13:07;58.27;;;31.30;;
42066;SDS011;27734;47.028;28.820;2023-12-28T06:15:38;63.07;;;30.97;;
42066;SDS011;27734;47.028;28.820;2023-12-28T06:18:10;61.87;;;29.27;;
42066;SDS011;27734;47.028;28.820;2023-12-28T06:20:41;52.83;;;25.67;;
42066;SDS011;27734;47.028;28.820;2023-12-28T06:25:45;51.77;;;25.80;;
42066;SDS011;27734;47.028;28.820;2023-12-28T06:28:16;51.07;;;24.90;;
42066;SDS011;27734;47.028;28.820;2023-12-28T06:30:48;48.80;;;25.07;;
42066;SDS011;27734;47.028;28.820;2023-12-28T06:33:20;51.87;;;25.57;;
42066;SDS011;27734;47.028;28.820;2023-12-28T06:35:51;48.30;;;24.30;;
42066;SDS011;27734;47.028;28.820;2023-12-28T06:38:23;49.40;;;22.57;;
42066;SDS011;27734;47.028;28.820;2023-12-28T06:40:54;49.37;;;22.83;;
42066;SDS011;27734;47.028;28.820;2023-12-28T06:43:25;48.83;;;22.03;;
42066;SDS011;27734;47.028;28.820;2023-12-28T06:45:57;44.97;;;21.90;;
42066;SDS011;27734;47.028;28.820;2023-12-28T06:48:29;44.57;;;20.90;;
42066;SDS011;27734;47.028;28.820;2023-12-28T06:51:00;48.63;;;22.83;;
42066;SDS011;27734;47.028;28.820;2023-12-28T06:53:31;48.20;;;22.70;;
42066;SDS011;27734;47.028;28.820;2023-12-28T06:56:04;47.47;;;21.50;;
42066;SDS011;27734;47.028;28.820;2023-12-28T06:58:36;47.40;;;21.73;;
42066;SDS011;27734;47.028;28.820;2023-12-28T07:01:07;46.13;;;20.90;;
42066;SDS011;27734;47.028;28.820;2023-12-28T07:03:39;51.83;;;22.70;;
42066;SDS011;27734;47.028;28.820;2023-12-28T07:06:10;48.00;;;21.13;;
42066;SDS011;27734;47.028;28.820;2023-12-28T07:08:42;42.47;;;20.60;;
42066;SDS011;27734;47.028;28.820;2023-12-28T07:11:14;41.63;;;18.77;;
42066;SDS011;27734;47.028;28.820;2023-12-28T07:13:45;40.77;;;18.13;;
42066;SDS011;27734;47.028;28.820;2023-12-28T07:16:16;35.97;;;16.13;;
42066;SDS011;27734;47.028;28.820;2023-12-28T07:18:53;38.23;;;16.50;;
42066;SDS011;27734;47.028;28.820;2023-12-28T07:21:25;41.37;;;16.83;;
42066;SDS011;27734;47.028;28.820;2023-12-28T07:23:56;39.83;;;16.37;;
42066;SDS011;27734;47.028;28.820;2023-12-28T07:26:28;39.37;;;16.13;;
42066;SDS011;27734;47.028;28.820;2023-12-28T07:28:59;35.63;;;16.37;;
42066;SDS011;27734;47.028;28.820;2023-12-28T07:31:31;40.07;;;16.50;;
42066;SDS011;27734;47.028;28.820;2023-12-28T07:34:02;42.63;;;17.70;;
42066;SDS011;27734;47.028;28.820;2023-12-28T07:36:34;37.27;;;16.20;;
42066;SDS011;27734;47.028;28.820;2023-12-28T07:39:05;38.03;;;16.20;;
42066;SDS011;27734;47.028;28.820;2023-12-28T07:41:38;38.93;;;15.73;;
42066;SDS011;27734;47.028;28.820;2023-12-28T07:44:12;44.20;;;17.37;;
42066;SDS011;27734;47.028;28.820;2023-12-28T07:46:44;36.55;;;15.45;;
42066;SDS011;27734;47.028;28.820;2023-12-28T07:49:16;36.57;;;15.00;;
42066;SDS011;27734;47.028;28.820;2023-12-28T07:51:47;34.20;;;14.73;;
42066;SDS011;27734;47.028;28.820;2023-12-28T07:54:18;32.97;;;13.87;;
42066;SDS011;27734;47.028;28.820;2023-12-28T07:56:50;28.00;;;12.83;;
42066;SDS011;27734;47.028;28.820;2023-12-28T07:59:24;28.63;;;12.57;;
42066;SDS011;27734;47.028;28.820;2023-12-28T08:01:58;29.63;;;11.67;;
42066;SDS011;27734;47.028;28.820;2023-12-28T08:04:30;24.83;;;10.60;;
42066;SDS011;27734;47.028;28.820;2023-12-28T08:07:02;31.20;;;11.53;;
42066;SDS011;27734;47.028;28.820;2023-12-28T08:09:35;30.37;;;11.83;;
42066;SDS011;27734;47.028;28.820;2023-12-28T08:12:06;27.90;;;10.97;;
42066;SDS011;27734;47.028;28.820;2023-12-28T08:14:40;25.37;;;10.27;;
42066;SDS011;27734;47.028;28.820;2023-12-28T08:17:11;25.67;;;11.40;;
42066;SDS011;27734;47.028;28.820;2023-12-28T08:19:43;31.47;;;12.53;;
42066;SDS011;27734;47.028;28.820;2023-12-28T08:22:15;33.07;;;11.07;;
42066;SDS011;27734;47.028;28.820;2023-12-28T08:24:47;27.70;;;11.67;;
42066;SDS011;27734;47.028;28.820;2023-12-28T08:27:18;27.50;;;11.27;;
42066;SDS011;27734;47.028;28.820;2023-12-28T08:29:49;29.77;;;11.83;;
42066;SDS011;27734;47.028;28.820;2023-12-28T08:32:22;27.40;;;11.25;;
42066;SDS011;27734;47.028;28.820;2023-12-28T08:35:00;23.83;;;9.77;;
42066;SDS011;27734;47.028;28.820;2023-12-28T08:37:32;25.33;;;8.53;;
42066;SDS011;27734;47.028;28.820;2023-12-28T08:40:04;20.83;;;8.07;;
42066;SDS011;27734;47.028;28.820;2023-12-28T08:42:37;16.03;;;6.53;;
42066;SDS011;27734;47.028;28.820;2023-12-28T08:45:08;19.27;;;5.87;;
42066;SDS011;27734;47.028;28.820;2023-12-28T08:47:40;14.23;;;6.30;;
42066;SDS011;27734;47.028;28.820;2023-12-28T08:50:11;17.80;;;6.10;;
42066;SDS011;27734;47.028;28.820;2023-12-28T08:52:43;15.00;;;5.63;;
42066;SDS011;27734;47.028;28.820;2023-12-28T08:55:15;17.20;;;6.00;;
42066;SDS011;27734;47.028;28.820;2023-12-28T08:57:46;16.10;;;5.20;;
42066;SDS011;27734;47.028;28.820;2023-12-28T09:00:17;17.17;;;6.03;;
42066;SDS011;27734;47.028;28.820;2023-12-28T09:02:49;16.13;;;6.07;;
42066;SDS011;27734;47.028;28.820;2023-12-28T09:05:21;17.87;;;6.23;;
42066;SDS011;27734;47.028;28.820;2023-12-28T09:07:52;15.20;;;5.00;;
42066;SDS011;27734;47.028;28.820;2023-12-28T09:10:24;20.57;;;6.80;;
42066;SDS011;27734;47.028;28.820;2023-12-28T09:12:57;24.23;;;7.57;;
42066;SDS011;27734;47.028;28.820;2023-12-28T09:15:29;18.50;;;6.33;;
42066;SDS011;27734;47.028;28.820;2023-12-28T09:18:03;16.20;;;5.80;;
42066;SDS011;27734;47.028;28.820;2023-12-28T09:20:37;20.83;;;5.47;;
42066;SDS011;27734;47.028;28.820;2023-12-28T09:23:08;15.43;;;5.93;;
42066;SDS011;27734;47.028;28.820;2023-12-28T09:25:41;17.73;;;5.90;;
42066;SDS011;27734;47.028;28.820;2023-12-28T09:28:12;19.27;;;5.50;;
42066;SDS011;27734;47.028;28.820;2023-12-28T09:30:44;14.87;;;4.80;;
42066;SDS011;27734;47.028;28.820;2023-12-28T09:33:15;21.17;;;5.97;;
42066;SDS011;27734;47.028;28.820;2023-12-28T09:35:49;12.20;;;4.80;;
42066;SDS011;27734;47.028;28.820;2023-12-28T09:38:21;11.57;;;4.47;;
42066;SDS011;27734;47.028;28.820;2023-12-28T09:40:54;9.60;;;4.10;;
42066;SDS011;27734;47.028;28.820;2023-12-28T09:43:35;11.48;;;4.40;;
42066;SDS011;27734;47.028;28.820;2023-12-28T09:46:15;13.47;;;4.30;;
42066;SDS011;27734;47.028;28.820;2023-12-28T09:48:46;19.53;;;4.83;;
42066;SDS011;27734;47.028;28.820;2023-12-28T09:51:21;12.07;;;4.10;;
42066;SDS011;27734;47.028;28.820;2023-12-28T09:53:53;11.30;;;3.97;;
42066;SDS011;27734;47.028;28.820;2023-12-28T09:56:25;13.33;;;4.23;;
42066;SDS011;27734;47.028;28.820;2023-12-28T09:58:57;10.53;;;4.03;;
42066;SDS011;27734;47.028;28.820;2023-12-28T10:01:29;10.37;;;4.27;;
42066;SDS011;27734;47.028;28.820;2023-12-28T10:04:02;8.63;;;3.70;;
42066;SDS011;27734;47.028;28.820;2023-12-28T10:06:36;9.90;;;3.77;;
42066;SDS011;27734;47.028;28.820;2023-12-28T10:09:07;10.23;;;4.00;;
42066;SDS011;27734;47.028;28.820;2023-12-28T10:11:39;10.57;;;3.93;;
42066;SDS011;27734;47.028;28.820;2023-12-28T10:14:11;13.15;;;3.90;;
42066;SDS011;27734;47.028;28.820;2023-12-28T10:16:47;8.85;;;4.00;;
42066;SDS011;27734;47.028;28.820;2023-12-28T10:19:22;9.53;;;4.33;;
42066;SDS011;27734;47.028;28.820;2023-12-28T10:21:58;8.53;;;4.40;;
42066;SDS011;27734;47.028;28.820;2023-12-28T10:24:29;10.67;;;4.53;;
42066;SDS011;27734;47.028;28.820;2023-12-28T10:27:01;11.57;;;4.60;;
42066;SDS011;27734;47.028;28.820;2023-12-28T10:29:40;13.80;;;5.23;;
42066;SDS011;27734;47.028;28.820;2023-12-28T10:32:11;13.27;;;4.90;;
42066;SDS011;27734;47.028;28.820;2023-12-28T10:34:46;11.83;;;4.73;;
42066;SDS011;27734;47.028;28.820;2023-12-28T10:37:18;11.20;;;4.43;;
42066;SDS011;27734;47.028;28.820;2023-12-28T10:39:51;10.70;;;4.60;;
42066;SDS011;27734;47.028;28.820;2023-12-28T10:42:27;12.55;;;4.67;;
42066;SDS011;27734;47.028;28.820;2023-12-28T10:45:03;12.23;;;4.77;;
42066;SDS011;27734;47.028;28.820;2023-12-28T10:47:42;10.30;;;4.47;;
42066;SDS011;27734;47.028;28.820;2023-12-28T10:50:20;12.97;;;5.80;;
42066;SDS011;27734;47.028;28.820;2023-12-28T10:52:56;11.20;;;4.37;;
42066;SDS011;27734;47.028;28.820;2023-12-28T10:55:47;10.93;;;4.70;;
42066;SDS011;27734;47.028;28.820;2023-12-28T10:58:30;11.87;;;5.00;;
42066;SDS011;27734;47.028;28.820;2023-12-28T11:01:14;12.70;;;5.00;;
42066;SDS011;27734;47.028;28.820;2023-12-28T11:03:56;13.87;;;5.57;;
42066;SDS011;27734;47.028;28.820;2023-12-28T11:06:33;13.50;;;5.10;;
42066;SDS011;27734;47.028;28.820;2023-12-28T12:10:16;15.20;;;5.63;;
42066;SDS011;27734;47.028;28.820;2023-12-28T12:12:47;12.83;;;5.60;;
42066;SDS011;27734;47.028;28.820;2023-12-28T12:15:20;15.33;;;5.93;;
42066;SDS011;27734;47.028;28.820;2023-12-28T12:17:52;14.77;;;6.33;;
42066;SDS011;27734;47.028;28.820;2023-12-28T12:20:33;16.57;;;5.53;;
42066;SDS011;27734;47.028;28.820;2023-12-28T12:23:07;13.30;;;5.65;;
42066;SDS011;27734;47.028;28.820;2023-12-28T12:25:40;15.37;;;6.30;;
42066;SDS011;27734;47.028;28.820;2023-12-28T12:28:13;14.10;;;5.80;;
42066;SDS011;27734;47.028;28.820;2023-12-28T12:30:50;13.10;;;5.50;;
42066;SDS011;27734;47.028;28.820;2023-12-28T12:33:24;16.50;;;5.73;;
42066;SDS011;27734;47.028;28.820;2023-12-28T12:36:00;13.60;;;5.57;;
42066;SDS011;27734;47.028;28.820;2023-12-28T12:38:34;15.00;;;6.00;;
42066;SDS011;27734;47.028;28.820;2023-12-28T12:41:06;14.53;;;6.00;;
42066;SDS011;27734;47.028;28.820;2023-12-28T12:43:43;16.23;;;6.33;;
42066;SDS011;27734;47.028;28.820;2023-12-28T12:46:16;16.73;;;5.97;;
42066;SDS011;27734;47.028;28.820;2023-12-28T12:48:55;16.17;;;5.63;;
42066;SDS011;27734;47.028;28.820;2023-12-28T12:51:29;15.63;;;6.07;;
42066;SDS011;27734;47.028;28.820;2023-12-28T12:54:01;16.87;;;6.42;;
42066;SDS011;27734;47.028;28.820;2023-12-28T12:56:34;14.50;;;5.95;;
42066;SDS011;27734;47.028;28.820;2023-12-28T12:59:12;16.27;;;6.40;;
42066;SDS011;27734;47.028;28.820;2023-12-28T13:01:46;15.73;;;6.47;;
42066;SDS011;27734;47.028;28.820;2023-12-28T13:04:18;17.07;;;5.93;;
42066;SDS011;27734;47.028;28.820;2023-12-28T13:06:50;15.13;;;6.23;;
42066;SDS011;27734;47.028;28.820;2023-12-28T13:09:22;14.27;;;5.83;;
42066;SDS011;27734;47.028;28.820;2023-12-28T13:11:53;18.87;;;7.80;;
42066;SDS011;27734;47.028;28.820;2023-12-28T13:14:25;15.37;;;6.00;;
42066;SDS011;27734;47.028;28.820;2023-12-28T13:17:01;17.60;;;6.30;;
42066;SDS011;27734;47.028;28.820;2023-12-28T13:19:32;15.13;;;5.53;;
42066;SDS011;27734;47.028;28.820;2023-12-28T13:22:05;16.43;;;6.17;;
42066;SDS011;27734;47.028;28.820;2023-12-28T13:24:39;15.40;;;6.00;;
42066;SDS011;27734;47.028;28.820;2023-12-28T13:27:11;16.10;;;5.73;;
42066;SDS011;27734;47.028;28.820;2023-12-28T13:29:43;14.77;;;6.33;;
42066;SDS011;27734;47.028;28.820;2023-12-28T13:32:18;13.07;;;5.67;;
42066;SDS011;27734;47.028;28.820;2023-12-28T13:34:54;18.33;;;6.33;;
42066;SDS011;27734;47.028;28.820;2023-12-28T13:40:14;14.87;;;6.50;;
42066;SDS011;27734;47.028;28.820;2023-12-28T13:42:46;19.13;;;6.53;;
42066;SDS011;27734;47.028;28.820;2023-12-28T13:45:17;16.93;;;6.30;;
42066;SDS011;27734;47.028;28.820;2023-12-28T13:47:48;18.07;;;6.67;;
42066;SDS011;27734;47.028;28.820;2023-12-28T13:50:20;18.20;;;6.40;;
42066;SDS011;27734;47.028;28.820;2023-12-28T13:52:51;15.43;;;6.30;;
42066;SDS011;27734;47.028;28.820;2023-12-28T13:55:22;16.50;;;6.93;;
42066;SDS011;27734;47.028;28.820;2023-12-28T13:57:56;17.47;;;7.13;;
42066;SDS011;27734;47.028;28.820;2023-12-28T14:00:27;22.40;;;7.23;;
42066;SDS011;27734;47.028;28.820;2023-12-28T14:02:59;18.10;;;7.47;;
42066;SDS011;27734;47.028;28.820;2023-12-28T14:05:30;19.07;;;8.00;;
42066;SDS011;27734;47.028;28.820;2023-12-28T14:08:02;18.70;;;7.10;;
42066;SDS011;27734;47.028;28.820;2023-12-28T14:10:42;20.43;;;7.17;;
42066;SDS011;27734;47.028;28.820;2023-12-28T14:13:16;16.23;;;7.17;;
42066;SDS011;27734;47.028;28.820;2023-12-28T14:15:49;23.77;;;7.63;;
42066;SDS011;27734;47.028;28.820;2023-12-28T14:18:20;20.10;;;7.90;;
42066;SDS011;27734;47.028;28.820;2023-12-28T14:20:52;19.67;;;8.17;;
42066;SDS011;27734;47.028;28.820;2023-12-28T14:23:24;23.50;;;8.97;;
42066;SDS011;27734;47.028;28.820;2023-12-28T14:25:56;26.37;;;8.33;;
42066;SDS011;27734;47.028;28.820;2023-12-28T14:28:29;19.90;;;8.10;;
42066;SDS011;27734;47.028;28.820;2023-12-28T14:31:02;22.40;;;8.67;;
42066;SDS011;27734;47.028;28.820;2023-12-28T14:33:37;24.77;;;9.03;;
42066;SDS011;27734;47.028;28.820;2023-12-28T14:36:10;23.20;;;8.77;;
42066;SDS011;27734;47.028;28.820;2023-12-28T14:38:55;20.60;;;8.17;;
42066;SDS011;27734;47.028;28.820;2023-12-28T14:41:27;19.47;;;8.37;;
42066;SDS011;27734;47.028;28.820;2023-12-28T14:43:58;21.40;;;8.93;;
42066;SDS011;27734;47.028;28.820;2023-12-28T14:46:30;19.93;;;8.57;;
42066;SDS011;27734;47.028;28.820;2023-12-28T14:49:01;23.37;;;10.30;;
42066;SDS011;27734;47.028;28.820;2023-12-28T14:51:32;24.07;;;11.23;;
42066;SDS011;27734;47.028;28.820;2023-12-28T14:54:04;24.23;;;11.03;;
42066;SDS011;27734;47.028;28.820;2023-12-28T14:56:35;21.73;;;10.53;;
42066;SDS011;27734;47.028;28.820;2023-12-28T14:59:07;27.63;;;11.30;;
42066;SDS011;27734;47.028;28.820;2023-12-28T15:01:38;22.87;;;10.47;;
42066;SDS011;27734;47.028;28.820;2023-12-28T15:04:10;24.00;;;9.80;;
42066;SDS011;27734;47.028;28.820;2023-12-28T15:06:41;26.03;;;10.57;;
42066;SDS011;27734;47.028;28.820;2023-12-28T15:09:12;31.97;;;11.30;;
42066;SDS011;27734;47.028;28.820;2023-12-28T15:11:47;27.27;;;12.33;;
42066;SDS011;27734;47.028;28.820;2023-12-28T15:14:20;27.33;;;11.73;;
42066;SDS011;27734;47.028;28.820;2023-12-28T15:16:56;26.23;;;11.93;;
42066;SDS011;27734;47.028;28.820;2023-12-28T15:19:30;24.10;;;9.97;;
42066;SDS011;27734;47.028;28.820;2023-12-28T15:22:03;23.57;;;10.50;;
42066;SDS011;27734;47.028;28.820;2023-12-28T15:24:36;23.37;;;10.40;;
42066;SDS011;27734;47.028;28.820;2023-12-28T15:27:11;25.63;;;11.10;;
42066;SDS011;27734;47.028;28.820;2023-12-28T15:29:42;25.70;;;10.43;;
42066;SDS011;27734;47.028;28.820;2023-12-28T15:32:13;25.67;;;11.47;;
42066;SDS011;27734;47.028;28.820;2023-12-28T15:34:45;26.73;;;11.10;;
42066;SDS011;27734;47.028;28.820;2023-12-28T15:37:17;25.73;;;11.07;;
42066;SDS011;27734;47.028;28.820;2023-12-28T15:39:49;28.90;;;11.43;;
42066;SDS011;27734;47.028;28.820;2023-12-28T15:42:21;26.60;;;11.37;;
42066;SDS011;27734;47.028;28.820;2023-12-28T15:44:52;27.07;;;11.13;;
42066;SDS011;27734;47.028;28.820;2023-12-28T15:47:26;29.65;;;11.55;;
42066;SDS011;27734;47.028;28.820;2023-12-28T15:50:01;30.00;;;12.17;;